• pl
  • eng

Awiacja
Kliknij na pogrubioną czerwoną nazwę, aby odkodować depeszę. 23:01 16.12.2018
  • WIND
  • SIGNIFICANT EURO
  • SIGNIFICANT
  • SIGMET
  • AIRMET
  • TAF FC
  • TAF FT
  • METAR GG30
  • METAR GG00


METAR EPBY 162200Z 14004KT 9000 FEW019 BKN022 OVC025 M02/M03 Q1018
R26/590194 =

METAR EPGD 162200Z 17004KT 7000 OVC028 M02/M03 Q1017 R11/290095 =

METAR EPKK 162200Z VRB01KT 1700 BR NSC M08/M09 Q1018 R25/51//95 =

METAR EPKT 162200Z 17003KT 3000 BR NSC M07/M09 Q1018 =

METAR EPLB 162200Z 13005KT 9999 OVC017 M01/M02 Q1020 =

METAR EPLL 162200Z 12003KT 090V150 9999 OVC024 M02/M05 Q1018
R25/29//95 =

METAR EPMO 162200Z 15004KT 9999 OVC028 M01/M03 Q1019 R08/290195 =

METAR EPPO 162200Z 13006KT 9999 OVC028 M02/M05 Q1017 R10/29//95 =

METAR EPRA 162200Z NIL=

METAR EPRZ 162200Z 09006KT 4000 BR NSC M03/M04 Q1019 R27/1///95 =

METAR EPSC 162200Z 12007KT 9999 BKN027 OVC031 M01/M05 Q1016 =

METAR EPSY 162200Z NIL=

METAR EPWA 162200Z 15005KT 9999 BKN028 M01/M03 Q1020 R88/2///95
NOSIG=

METAR EPWR 162200Z 14005KT CAVOK M02/M05 Q1017 =

METAR EPZG 162200Z 13004KT 8000 NSC M02/M04 Q1016 =
 METAR EPGD
Lokalizacja:EPGD Gdańsk
Czas:22:00 UTC
Średni kierunek wiatru:170 °
Średnia prędkość wiatru:4 węzłów
Widzialność:7 kilometrów
Pierwsza warstwa chmur:8/8, wysokość podstawy 2800 FT
Temperatura powietrza:-2 °C
Temperatura punktu rosy:-3 °C
Ciśnienie QNH:1017 hPa
Stan drogi startowej:
Wskaźnik drogi:11
Rodzaj pokrycia drogi:mokra lub kałuże wody
Rozległość zanieczyszczenia drogi:51% do 100% drogi startowej zanieczyszczone (pokryte)
Głębokość pokrycia drogi:mniej niż 1 mm
Współczynnik sczepności / hamowanie:hamowanie dobre
Awiacja.imgw.pl jest pogodowym serwisem informacyjnym
Instytutu Meteorologii i Gospodarki Wodnej Państwowego Instytutu Badawczego.
Copyright IMGW PIB 2009-2011© Wszelkie prawa zastrzeżone.